Time;durP1;ratioP1;P1;durP2;ratioP2;P2;SDS_P1;SDS_P2;PMS_P1;PMS_P2;Temp;Humidity;BMP_temperature;BMP_pressure;BME280_temperature;BME280_humidity;BME280_pressure;Samples;Min_cycle;Max_cycle;Signal;HPM_P1;HPM_P2
2024/01/28 00:01:00;;;;;;;28.07;11.47;;;-0.30;99.90;;;;;;5076049;28;20305;-82
2024/01/28 00:03:26;;;;;;;23.50;11.23;;;-0.40;99.90;;;;;;5060217;28;20324;-82
2024/01/28 00:05:55;;;;;;;24.60;11.13;;;-0.40;99.90;;;;;;5063916;28;20225;-81
2024/01/28 00:08:25;;;;;;;22.93;10.80;;;-0.40;99.90;;;;;;5065981;28;20215;-81
2024/01/28 00:10:52;;;;;;;23.03;10.23;;;-0.40;99.90;;;;;;5063402;28;20224;-81
2024/01/28 00:13:23;;;;;;;18.50;10.17;;;-0.40;99.90;;;;;;5067969;28;20215;-83
2024/01/28 00:15:52;;;;;;;23.50;10.63;;;-0.40;99.90;;;;;;5056247;28;20324;-82
2024/01/28 00:18:19;;;;;;;19.27;10.17;;;-0.50;99.90;;;;;;5060915;28;20568;-82
2024/01/28 00:20:46;;;;;;;25.13;10.27;;;-0.50;99.90;;;;;;5053948;28;20219;-82
2024/01/28 00:23:14;;;;;;;22.47;11.03;;;-0.50;99.90;;;;;;5060118;28;20229;-81
2024/01/28 00:25:41;;;;;;;22.87;11.23;;;-0.50;99.90;;;;;;5056950;28;20238;-82
2024/01/28 00:28:07;;;;;;;27.63;11.00;;;-0.50;99.90;;;;;;5046222;28;20303;-81
2024/01/28 00:30:35;;;;;;;26.50;10.47;;;-0.50;99.90;;;;;;5051792;28;20759;-80
2024/01/28 00:33:02;;;;;;;20.77;9.87;;;-0.50;99.90;;;;;;5056525;28;20885;-82
2024/01/28 00:35:28;;;;;;;20.20;10.23;;;-0.60;99.90;;;;;;5059422;28;20338;-82
2024/01/28 00:37:57;;;;;;;22.67;9.47;;;-0.60;99.90;;;;;;5061744;28;20220;-81
2024/01/28 00:40:25;;;;;;;18.07;9.77;;;-0.60;99.90;;;;;;5077773;28;20214;-81
2024/01/28 00:42:52;;;;;;;22.17;11.83;;;-0.60;99.90;;;;;;5081048;28;21077;-82
2024/01/28 00:45:19;;;;;;;26.57;10.37;;;-0.60;99.90;;;;;;5081443;28;20219;-80
2024/01/28 00:47:45;;;;;;;21.77;10.23;;;-0.70;99.90;;;;;;5059282;28;20314;-80
2024/01/28 00:50:11;;;;;;;45.17;12.60;;;-0.70;99.90;;;;;;5077909;28;20881;-80
2024/01/28 00:52:38;;;;;;;22.17;9.90;;;-0.70;99.90;;;;;;5060445;28;20257;-80
2024/01/28 00:55:06;;;;;;;18.93;9.87;;;-0.70;99.90;;;;;;5083370;28;20231;-82
2024/01/28 00:57:34;;;;;;;23.83;9.90;;;-0.70;99.90;;;;;;5077558;28;20231;-82
2024/01/28 01:00:01;;;;;;;26.07;10.17;;;-0.80;99.90;;;;;;5064142;28;20218;-82
2024/01/28 01:02:28;;;;;;;21.10;9.60;;;-0.80;99.90;;;;;;5065904;28;20766;-82
2024/01/28 01:04:54;;;;;;;21.20;10.00;;;-0.80;99.90;;;;;;5053527;28;20306;-81
2024/01/28 01:07:21;;;;;;;21.17;9.67;;;-0.80;99.90;;;;;;5067195;28;20707;-82
2024/01/28 01:09:48;;;;;;;18.20;9.37;;;-0.80;99.90;;;;;;5062940;28;20242;-82
2024/01/28 01:12:15;;;;;;;23.37;10.63;;;-0.90;99.90;;;;;;5083429;28;20223;-81
2024/01/28 01:14:43;;;;;;;21.40;8.93;;;-0.80;99.90;;;;;;5058678;28;20217;-81
2024/01/28 01:17:10;;;;;;;25.63;10.17;;;-0.80;99.90;;;;;;5061319;28;20234;-81
2024/01/28 01:19:36;;;;;;;16.87;9.30;;;-0.80;99.90;;;;;;5076962;28;20721;-82
2024/01/28 01:22:03;;;;;;;21.70;10.70;;;-0.80;99.90;;;;;;5057902;28;20229;-82
2024/01/28 01:24:30;;;;;;;18.20;10.03;;;-0.80;99.90;;;;;;5061624;28;20217;-82
2024/01/28 01:26:57;;;;;;;21.33;10.20;;;-0.80;99.90;;;;;;5060872;28;20321;-82
2024/01/28 01:29:23;;;;;;;22.90;9.87;;;-0.80;99.90;;;;;;5062665;28;20328;-81
2024/01/28 01:31:53;;;;;;;20.27;9.97;;;-0.80;99.90;;;;;;5060398;28;20248;-82
2024/01/28 01:34:20;;;;;;;20.23;9.47;;;-0.80;99.90;;;;;;5073113;28;20241;-82
2024/01/28 01:36:47;;;;;;;24.00;9.87;;;-0.70;99.90;;;;;;5060767;28;20230;-82
2024/01/28 01:39:16;;;;;;;24.93;10.43;;;-0.80;99.90;;;;;;5063361;28;20239;-82
2024/01/28 01:41:43;;;;;;;25.17;9.70;;;-0.80;99.90;;;;;;5083104;28;20222;-83
2024/01/28 01:44:10;;;;;;;23.03;9.93;;;-0.80;99.90;;;;;;5065188;28;20220;-83
2024/01/28 01:46:39;;;;;;;21.43;9.53;;;-0.80;99.90;;;;;;5064747;28;20234;-82
2024/01/28 01:49:08;;;;;;;18.97;8.83;;;-0.80;99.90;;;;;;5063344;28;20223;-82
2024/01/28 01:51:35;;;;;;;19.83;9.40;;;-0.80;99.90;;;;;;5084276;28;20313;-82
2024/01/28 01:54:03;;;;;;;22.90;9.97;;;-0.80;99.90;;;;;;5086195;28;20719;-81
2024/01/28 01:56:31;;;;;;;23.20;9.13;;;-0.90;99.90;;;;;;5085478;28;20223;-81
2024/01/28 01:58:58;;;;;;;22.93;9.67;;;-0.80;99.90;;;;;;5065045;28;20313;-81
2024/01/28 02:01:27;;;;;;;22.10;9.47;;;-0.90;99.90;;;;;;5081267;28;20248;-82
2024/01/28 02:03:55;;;;;;;30.87;10.57;;;-0.80;99.90;;;;;;5065470;28;20460;-81
2024/01/28 02:06:23;;;;;;;24.87;10.20;;;-0.90;99.90;;;;;;5057578;28;20222;-82
2024/01/28 02:08:50;;;;;;;22.97;9.80;;;-0.90;99.90;;;;;;5062590;28;20249;-82
2024/01/28 02:11:17;;;;;;;26.70;9.57;;;-0.90;99.90;;;;;;5085453;28;20234;-81
2024/01/28 02:13:44;;;;;;;22.37;9.33;;;-0.90;99.90;;;;;;5087529;28;20276;-81
2024/01/28 02:16:11;;;;;;;20.63;10.30;;;-0.90;99.90;;;;;;5070289;28;20231;-81
2024/01/28 02:18:37;;;;;;;18.47;9.20;;;-0.90;99.90;;;;;;5063932;28;20222;-82
2024/01/28 02:21:05;;;;;;;20.20;9.90;;;-0.90;99.90;;;;;;5085985;28;20257;-81
2024/01/28 02:23:33;;;;;;;23.23;9.33;;;-0.90;99.90;;;;;;5064187;28;20807;-81
2024/01/28 02:26:00;;;;;;;25.23;9.53;;;-0.90;99.90;;;;;;5062708;28;20246;-81
2024/01/28 02:28:26;;;;;;;20.87;9.50;;;-0.90;99.90;;;;;;5066533;28;20246;-81
2024/01/28 02:30:53;;;;;;;20.87;9.47;;;-0.90;99.90;;;;;;5086580;28;20229;-82
2024/01/28 02:33:20;;;;;;;19.67;9.50;;;-0.90;99.90;;;;;;5059901;28;20747;-82
2024/01/28 02:35:47;;;;;;;29.90;10.00;;;-0.90;99.90;;;;;;5064396;28;20253;-82
2024/01/28 02:38:13;;;;;;;20.90;9.63;;;-0.90;99.90;;;;;;5086829;28;20210;-82
2024/01/28 02:40:41;;;;;;;23.50;8.57;;;-0.90;99.90;;;;;;5052905;28;20310;-82
2024/01/28 02:43:08;;;;;;;21.17;9.37;;;-0.90;99.90;;;;;;5050863;28;20308;-81
2024/01/28 02:45:35;;;;;;;20.97;9.90;;;-0.80;99.90;;;;;;5060177;28;20225;-82
2024/01/28 02:48:02;;;;;;;24.17;9.57;;;-0.80;99.90;;;;;;5055213;28;20307;-81
2024/01/28 02:50:29;;;;;;;24.07;9.23;;;-0.80;99.90;;;;;;5069389;28;20276;-81
2024/01/28 02:52:55;;;;;;;19.47;8.20;;;-0.80;99.90;;;;;;5060405;28;20840;-82
2024/01/28 02:55:23;;;;;;;18.23;8.47;;;-0.80;99.90;;;;;;5055792;28;20233;-82
2024/01/28 02:57:51;;;;;;;23.33;9.10;;;-0.80;99.90;;;;;;5060228;28;20222;-81
2024/01/28 03:00:18;;;;;;;21.30;8.57;;;-0.80;99.90;;;;;;5078710;28;20281;-81
2024/01/28 03:02:45;;;;;;;25.47;9.83;;;-0.80;99.90;;;;;;5058278;28;20242;-82
2024/01/28 03:05:12;;;;;;;23.93;9.20;;;-0.80;99.90;;;;;;5079547;28;20231;-83
2024/01/28 03:07:40;;;;;;;21.63;9.53;;;-0.80;99.90;;;;;;5057146;28;20300;-81
2024/01/28 03:10:08;;;;;;;17.87;8.73;;;-0.80;99.90;;;;;;5064488;28;20745;-83
2024/01/28 03:12:36;;;;;;;17.73;8.60;;;-0.80;99.90;;;;;;5066642;28;20291;-82
2024/01/28 03:15:05;;;;;;;18.10;9.30;;;-0.80;99.90;;;;;;5061557;28;20226;-82
2024/01/28 03:17:32;;;;;;;19.17;8.97;;;-0.80;99.90;;;;;;5067632;28;20889;-83
2024/01/28 03:19:59;;;;;;;23.27;9.10;;;-0.80;99.90;;;;;;5074787;28;20223;-83
2024/01/28 03:22:26;;;;;;;20.57;9.07;;;-0.70;99.90;;;;;;5066538;28;20229;-82
2024/01/28 03:24:53;;;;;;;17.57;8.93;;;-0.70;99.90;;;;;;5062428;28;20241;-82
2024/01/28 03:27:19;;;;;;;22.10;9.17;;;-0.70;99.90;;;;;;5039480;28;20222;-82
2024/01/28 03:29:46;;;;;;;22.17;9.27;;;-0.70;99.90;;;;;;5060317;28;20331;-82
2024/01/28 03:32:14;;;;;;;23.63;9.40;;;-0.70;99.90;;;;;;5063594;28;20279;-82
2024/01/28 03:34:41;;;;;;;22.47;9.43;;;-0.60;99.90;;;;;;5059103;28;20222;-82
2024/01/28 03:37:08;;;;;;;23.27;9.37;;;-0.60;99.90;;;;;;5059119;28;20227;-82
2024/01/28 03:39:35;;;;;;;20.07;10.13;;;-0.60;99.90;;;;;;5062206;28;20797;-82
2024/01/28 03:42:01;;;;;;;25.13;8.60;;;-0.60;99.90;;;;;;5059965;28;20234;-81
2024/01/28 03:44:29;;;;;;;18.63;9.30;;;-0.50;99.90;;;;;;5054979;28;20298;-81
2024/01/28 03:46:56;;;;;;;16.77;8.47;;;-0.50;99.90;;;;;;5053658;28;20774;-80
2024/01/28 03:49:24;;;;;;;22.53;8.60;;;-0.50;99.90;;;;;;5065171;28;20916;-81
2024/01/28 03:51:51;;;;;;;18.13;8.03;;;-0.50;99.90;;;;;;5055527;28;20264;-81
2024/01/28 03:54:17;;;;;;;19.10;8.30;;;-0.50;99.90;;;;;;5045421;28;21277;-82
2024/01/28 03:56:44;;;;;;;22.00;8.67;;;-0.60;99.90;;;;;;5058735;28;20257;-82
2024/01/28 03:59:13;;;;;;;21.63;8.43;;;-0.60;99.90;;;;;;5054883;28;20221;-82
2024/01/28 04:01:40;;;;;;;18.17;8.60;;;-0.60;99.90;;;;;;5065174;28;20372;-83
2024/01/28 04:04:07;;;;;;;22.27;9.17;;;-0.70;99.90;;;;;;5055418;28;20226;-81
2024/01/28 04:06:41;;;;;;;22.73;8.53;;;-0.70;99.90;;;;;;5058784;28;20307;-82
2024/01/28 04:09:08;;;;;;;19.47;8.77;;;-0.80;99.90;;;;;;5075121;28;20245;-81
2024/01/28 04:11:35;;;;;;;21.53;9.60;;;-0.80;99.90;;;;;;5067216;28;20322;-81
2024/01/28 04:14:01;;;;;;;42.17;9.80;;;-0.80;99.90;;;;;;5058346;28;20250;-83
2024/01/28 04:16:28;;;;;;;23.73;9.17;;;-0.90;99.90;;;;;;5078791;28;20261;-83
2024/01/28 04:18:56;;;;;;;21.00;8.70;;;-0.90;99.90;;;;;;5063778;28;20326;-83
2024/01/28 04:21:24;;;;;;;23.87;8.77;;;-0.90;99.90;;;;;;5072518;28;20808;-82
2024/01/28 04:23:52;;;;;;;22.30;8.93;;;-1.00;99.90;;;;;;5054396;28;20237;-82
2024/01/28 04:26:19;;;;;;;20.97;8.73;;;-1.00;99.90;;;;;;5046342;28;20226;-81
2024/01/28 04:28:46;;;;;;;19.20;9.00;;;-1.00;99.90;;;;;;5061585;28;20274;-83
2024/01/28 04:31:13;;;;;;;21.57;8.47;;;-1.00;99.90;;;;;;5075629;28;20214;-82
2024/01/28 04:33:41;;;;;;;20.90;9.23;;;-1.00;99.90;;;;;;5065237;28;20222;-82
2024/01/28 04:36:08;;;;;;;16.63;8.73;;;-1.10;99.90;;;;;;5062563;28;20614;-81
2024/01/28 04:38:35;;;;;;;15.30;8.30;;;-1.10;99.90;;;;;;5075295;28;20246;-82
2024/01/28 04:41:04;;;;;;;22.90;8.93;;;-1.20;99.90;;;;;;5054192;28;20619;-83
2024/01/28 04:43:31;;;;;;;19.90;8.47;;;-1.20;99.90;;;;;;5070886;28;20222;-81
2024/01/28 04:45:58;;;;;;;18.57;8.47;;;-1.20;99.90;;;;;;5083027;28;20234;-82
2024/01/28 04:48:25;;;;;;;18.97;9.00;;;-1.30;99.90;;;;;;5065169;28;20255;-82
2024/01/28 04:50:52;;;;;;;23.03;9.63;;;-1.30;99.90;;;;;;5058835;28;20777;-82
2024/01/28 04:53:18;;;;;;;22.70;9.77;;;-1.30;99.90;;;;;;5053988;28;20275;-81
2024/01/28 04:55:45;;;;;;;24.13;9.87;;;-1.30;99.90;;;;;;5054855;28;20465;-82
2024/01/28 04:58:13;;;;;;;21.50;10.00;;;-1.30;99.90;;;;;;5060886;28;20228;-82
2024/01/28 05:00:40;;;;;;;20.40;9.63;;;-1.30;99.90;;;;;;5062803;28;20250;-82
2024/01/28 05:03:07;;;;;;;29.30;10.20;;;-1.30;99.90;;;;;;5056504;28;20306;-82
2024/01/28 05:05:34;;;;;;;24.60;10.33;;;-1.40;99.90;;;;;;5057915;28;20236;-82
2024/01/28 05:08:01;;;;;;;26.53;10.27;;;-1.30;99.90;;;;;;5057655;28;21215;-82
2024/01/28 05:10:28;;;;;;;25.47;9.47;;;-1.30;99.90;;;;;;5076863;28;20233;-81
2024/01/28 05:12:54;;;;;;;26.50;9.30;;;-1.30;99.90;;;;;;5075507;28;20231;-82
2024/01/28 05:15:23;;;;;;;22.53;9.60;;;-1.30;99.90;;;;;;5062815;28;20226;-82
2024/01/28 05:17:50;;;;;;;25.40;10.00;;;-1.30;99.90;;;;;;5060558;28;20229;-82
2024/01/28 05:20:17;;;;;;;27.20;9.00;;;-1.30;99.90;;;;;;5062212;28;20221;-84
2024/01/28 05:22:45;;;;;;;28.30;9.77;;;-1.30;99.90;;;;;;5076067;28;20227;-83
2024/01/28 05:25:13;;;;;;;26.17;9.70;;;-1.30;99.90;;;;;;5061949;28;20307;-84
2024/01/28 05:27:41;;;;;;;21.97;9.83;;;-1.30;99.90;;;;;;5075789;28;20254;-83
2024/01/28 05:30:09;;;;;;;25.07;9.73;;;-1.30;99.90;;;;;;5077795;28;20229;-86
2024/01/28 05:32:38;;;;;;;34.70;10.27;;;-1.30;99.90;;;;;;5056555;28;20246;-87
2024/01/28 05:35:05;;;;;;;27.87;10.63;;;-1.40;99.90;;;;;;5066121;28;20224;-84
2024/01/28 05:37:32;;;;;;;35.33;10.33;;;-1.30;99.90;;;;;;5061876;28;20760;-85
2024/01/28 05:40:02;;;;;;;30.60;10.70;;;-1.30;99.90;;;;;;5062596;28;20253;-83
2024/01/28 05:42:29;;;;;;;23.10;9.80;;;-1.30;99.90;;;;;;5057369;28;20299;-84
2024/01/28 05:44:56;;;;;;;26.00;10.53;;;-1.20;99.90;;;;;;5063719;28;20226;-83
2024/01/28 05:47:23;;;;;;;22.67;10.00;;;-1.30;99.90;;;;;;5061159;28;20223;-84
2024/01/28 05:49:52;;;;;;;28.93;10.67;;;-1.30;99.90;;;;;;5067418;28;20227;-81
2024/01/28 05:52:19;;;;;;;20.43;9.70;;;-1.30;99.90;;;;;;5056409;28;20222;-81
2024/01/28 05:54:46;;;;;;;26.07;10.40;;;-1.30;99.90;;;;;;5064437;28;20231;-84
2024/01/28 05:57:13;;;;;;;17.67;8.90;;;-1.30;99.90;;;;;;5054154;28;20226;-84
2024/01/28 05:59:40;;;;;;;19.67;9.57;;;-1.30;99.90;;;;;;5054294;28;20219;-84
2024/01/28 06:02:08;;;;;;;25.03;10.00;;;-1.30;99.90;;;;;;5078890;28;20933;-85
2024/01/28 06:04:35;;;;;;;24.53;9.63;;;-1.30;99.90;;;;;;5079454;28;20225;-86
2024/01/28 06:07:03;;;;;;;23.13;8.83;;;-1.30;99.90;;;;;;5056924;28;20295;-86
2024/01/28 06:09:31;;;;;;;25.33;9.33;;;-1.30;99.90;;;;;;5069395;28;20235;-87
2024/01/28 06:11:58;;;;;;;22.90;9.53;;;-1.30;99.90;;;;;;5060562;28;20287;-84
2024/01/28 06:14:25;;;;;;;35.60;15.27;;;-1.30;99.90;;;;;;5050128;28;20237;-87
2024/01/28 06:16:52;;;;;;;27.60;10.90;;;-1.40;99.90;;;;;;5059238;28;21102;-86
2024/01/28 06:19:19;;;;;;;25.13;9.77;;;-1.40;99.90;;;;;;5052990;28;20863;-86
2024/01/28 06:21:46;;;;;;;22.80;9.73;;;-1.40;99.90;;;;;;5079711;28;20348;-85
2024/01/28 06:24:14;;;;;;;22.10;9.53;;;-1.40;99.90;;;;;;5059209;28;20216;-86
2024/01/28 06:26:41;;;;;;;32.10;10.93;;;-1.40;99.90;;;;;;5056667;28;20743;-86
2024/01/28 06:29:09;;;;;;;23.53;11.00;;;-1.50;99.90;;;;;;5055698;28;20227;-86
2024/01/28 06:31:36;;;;;;;27.37;10.70;;;-1.50;99.90;;;;;;5059469;28;20757;-86
2024/01/28 06:34:04;;;;;;;21.43;10.07;;;-1.50;99.90;;;;;;5051309;28;20232;-86
2024/01/28 06:36:31;;;;;;;18.17;9.60;;;-1.50;99.90;;;;;;5059763;28;20249;-85
2024/01/28 06:38:58;;;;;;;19.53;8.87;;;-1.60;99.90;;;;;;5060653;28;20235;-86
2024/01/28 06:41:26;;;;;;;25.60;9.83;;;-1.60;99.90;;;;;;5061518;28;22899;-84
2024/01/28 06:43:53;;;;;;;22.77;9.67;;;-1.60;99.90;;;;;;5058424;28;20302;-81
2024/01/28 06:46:19;;;;;;;27.53;9.20;;;-1.70;99.90;;;;;;5060289;28;20227;-80
2024/01/28 06:48:46;;;;;;;22.57;9.90;;;-1.70;99.90;;;;;;5080686;28;20226;-81
2024/01/28 06:51:13;;;;;;;32.77;9.90;;;-1.70;99.90;;;;;;5080668;28;20305;-81
2024/01/28 06:53:40;;;;;;;21.03;8.83;;;-1.80;99.90;;;;;;5060600;28;20307;-81
2024/01/28 06:56:07;;;;;;;23.93;9.60;;;-1.80;99.90;;;;;;5078598;28;20237;-82
2024/01/28 06:58:35;;;;;;;42.57;10.47;;;-1.80;99.90;;;;;;5066091;28;20239;-80
2024/01/28 07:01:11;;;;;;;101.10;14.07;;;-1.80;99.90;;;;;;5048137;28;20318;-81
2024/01/28 07:03:37;;;;;;;23.67;8.70;;;-1.80;99.90;;;;;;5048909;28;20237;-81
2024/01/28 07:06:04;;;;;;;29.63;8.87;;;-1.80;99.90;;;;;;5063162;28;20763;-81
2024/01/28 07:08:31;;;;;;;25.90;8.90;;;-1.80;99.90;;;;;;5060449;28;20286;-82
2024/01/28 07:11:01;;;;;;;21.40;8.40;;;-1.80;99.90;;;;;;5067484;28;20309;-81
2024/01/28 07:13:27;;;;;;;50.77;9.80;;;-1.90;99.90;;;;;;5064234;28;20311;-81
2024/01/28 07:15:56;;;;;;;25.87;8.77;;;-1.90;99.90;;;;;;5066694;28;20233;-81
2024/01/28 07:18:22;;;;;;;25.70;8.83;;;-1.90;99.90;;;;;;5059397;28;20223;-81
2024/01/28 07:20:49;;;;;;;21.20;8.43;;;-1.80;99.90;;;;;;5079878;28;20807;-81
2024/01/28 07:23:16;;;;;;;28.20;9.53;;;-1.80;99.90;;;;;;5062003;28;20250;-81
2024/01/28 07:25:42;;;;;;;18.60;9.23;;;-1.80;99.90;;;;;;5066977;28;20233;-82
2024/01/28 07:28:09;;;;;;;36.60;9.20;;;-1.80;99.90;;;;;;5063181;28;20317;-82
2024/01/28 07:30:36;;;;;;;19.23;8.13;;;-1.80;99.90;;;;;;5088020;28;20248;-82
2024/01/28 07:33:07;;;;;;;22.77;8.20;;;-1.70;99.90;;;;;;5070322;28;20274;-81
2024/01/28 07:35:34;;;;;;;17.83;7.57;;;-1.70;99.90;;;;;;5067257;28;20319;-81
2024/01/28 07:38:01;;;;;;;19.40;7.70;;;-1.60;99.90;;;;;;5082587;28;20309;-81
2024/01/28 07:40:28;;;;;;;23.70;8.20;;;-1.50;99.90;;;;;;5089326;28;20317;-80
2024/01/28 07:42:55;;;;;;;21.20;7.43;;;-1.50;99.90;;;;;;5059694;28;20247;-81
2024/01/28 07:45:22;;;;;;;22.03;8.10;;;-1.50;99.90;;;;;;5050035;28;20304;-82
2024/01/28 07:47:49;;;;;;;15.33;7.70;;;-1.40;99.90;;;;;;5067730;28;20218;-81
2024/01/28 07:50:18;;;;;;;19.77;7.07;;;-1.40;99.90;;;;;;5066239;28;20307;-83
2024/01/28 07:52:45;;;;;;;21.17;8.17;;;-1.30;99.90;;;;;;5081273;28;20219;-82
2024/01/28 07:55:12;;;;;;;51.63;10.33;;;-1.30;99.90;;;;;;5035970;28;20230;-83
2024/01/28 07:57:38;;;;;;;16.10;6.93;;;-1.20;99.90;;;;;;5066016;28;20218;-83
2024/01/28 08:00:06;;;;;;;20.67;6.83;;;-1.10;99.90;;;;;;5043529;28;20298;-81
2024/01/28 08:02:38;;;;;;;15.53;7.37;;;-1.10;99.90;;;;;;5065049;28;20229;-82
2024/01/28 08:05:05;;;;;;;16.27;6.73;;;-1.00;99.90;;;;;;5058903;28;20235;-82
2024/01/28 08:07:34;;;;;;;28.70;7.60;;;-0.90;99.90;;;;;;5079590;28;20237;-83
2024/01/28 08:10:01;;;;;;;25.23;7.50;;;-0.80;99.90;;;;;;5038920;28;20227;-82
2024/01/28 08:12:28;;;;;;;25.20;8.00;;;-0.80;99.90;;;;;;5057363;28;20226;-82
2024/01/28 08:14:55;;;;;;;16.80;6.50;;;-0.70;99.90;;;;;;5083644;28;20215;-81
2024/01/28 08:17:21;;;;;;;17.43;6.63;;;-0.60;99.90;;;;;;5056987;28;20840;-82
2024/01/28 08:19:48;;;;;;;17.17;6.53;;;-0.50;99.90;;;;;;5056479;28;20308;-83
2024/01/28 08:22:15;;;;;;;23.23;7.10;;;-0.40;99.90;;;;;;5057923;28;20254;-82
2024/01/28 08:24:43;;;;;;;18.30;7.00;;;-0.40;99.90;;;;;;5077805;28;20230;-82
2024/01/28 08:27:10;;;;;;;19.13;6.70;;;-0.40;99.90;;;;;;5056911;28;20271;-81
2024/01/28 08:29:38;;;;;;;15.87;5.83;;;-0.30;99.90;;;;;;5061302;28;20248;-82
2024/01/28 08:32:06;;;;;;;15.57;6.83;;;-0.20;99.90;;;;;;5059095;28;20249;-82
2024/01/28 08:34:32;;;;;;;22.07;6.63;;;-0.20;99.90;;;;;;5040414;28;20307;-82
2024/01/28 08:36:59;;;;;;;12.80;5.93;;;-0.20;99.90;;;;;;5043825;28;20463;-83
2024/01/28 08:39:26;;;;;;;15.10;5.90;;;-0.10;99.90;;;;;;5055726;28;20252;-82
2024/01/28 08:41:55;;;;;;;15.67;6.87;;;-0.10;99.90;;;;;;5050547;28;20229;-82
2024/01/28 08:44:22;;;;;;;18.40;6.37;;;0.00;99.90;;;;;;5057541;28;20232;-82
2024/01/28 08:46:49;;;;;;;13.97;6.60;;;0.00;99.90;;;;;;5049813;28;20234;-82
2024/01/28 08:49:15;;;;;;;18.07;6.17;;;0.10;99.90;;;;;;5053792;28;20221;-83
2024/01/28 08:51:42;;;;;;;17.13;6.70;;;0.10;99.90;;;;;;5056659;28;20431;-82
2024/01/28 08:54:09;;;;;;;17.63;6.33;;;0.20;99.90;;;;;;5040653;28;20330;-82
2024/01/28 08:56:36;;;;;;;16.03;6.20;;;0.20;99.90;;;;;;5041809;28;20251;-82
2024/01/28 08:59:04;;;;;;;17.23;5.80;;;0.30;99.90;;;;;;5058858;28;20230;-82
2024/01/28 09:01:30;;;;;;;12.93;6.20;;;0.40;99.90;;;;;;5045353;28;20226;-82
2024/01/28 09:03:57;;;;;;;13.00;5.23;;;0.50;99.90;;;;;;5053745;28;20222;-83
2024/01/28 09:06:24;;;;;;;13.37;5.10;;;0.60;99.90;;;;;;5054260;28;20322;-82
2024/01/28 09:08:51;;;;;;;13.73;6.03;;;0.70;99.90;;;;;;5050776;28;21028;-82
2024/01/28 09:11:18;;;;;;;12.87;5.60;;;0.90;99.90;;;;;;5051554;28;20218;-82
2024/01/28 09:13:44;;;;;;;14.43;4.97;;;1.00;99.90;;;;;;5077564;28;20228;-82
2024/01/28 09:16:12;;;;;;;14.67;5.43;;;1.10;99.90;;;;;;5045355;28;20255;-82
2024/01/28 09:18:42;;;;;;;12.57;5.20;;;1.30;99.90;;;;;;5051669;28;20233;-82
2024/01/28 09:21:09;;;;;;;13.23;4.47;;;1.50;99.90;;;;;;5050009;28;20245;-82
2024/01/28 09:23:36;;;;;;;15.67;4.57;;;1.70;99.90;;;;;;5056286;28;20235;-82
2024/01/28 09:26:03;;;;;;;12.33;4.70;;;1.90;99.90;;;;;;5044781;28;20230;-82
2024/01/28 09:28:29;;;;;;;13.67;5.00;;;2.00;99.90;;;;;;5055820;28;20230;-83
2024/01/28 09:30:56;;;;;;;12.73;4.73;;;2.20;99.90;;;;;;5068434;28;20229;-82
2024/01/28 09:33:24;;;;;;;10.87;4.50;;;2.40;99.90;;;;;;5035341;28;20706;-82
2024/01/28 09:35:52;;;;;;;20.70;4.20;;;2.60;99.90;;;;;;5063407;28;20231;-85
2024/01/28 09:38:19;;;;;;;13.23;3.77;;;2.70;99.90;;;;;;5055535;28;20252;-85
2024/01/28 09:40:46;;;;;;;10.00;4.17;;;2.90;99.90;;;;;;5043880;28;20278;-85
2024/01/28 09:43:22;;;;;;;9.90;3.70;;;3.10;99.90;;;;;;5068151;28;20218;-86
2024/01/28 09:45:49;;;;;;;12.73;4.37;;;3.20;99.90;;;;;;5054951;28;20667;-85
2024/01/28 09:48:17;;;;;;;7.83;3.67;;;3.30;99.90;;;;;;5046794;28;20304;-84
2024/01/28 09:50:45;;;;;;;10.07;3.43;;;3.50;99.90;;;;;;5046817;28;20227;-85
2024/01/28 09:53:13;;;;;;;8.97;3.80;;;3.60;99.90;;;;;;5038973;28;20318;-85
2024/01/28 09:55:40;;;;;;;9.67;3.80;;;3.70;99.90;;;;;;5050123;28;20235;-85
2024/01/28 09:58:07;;;;;;;8.20;4.30;;;3.80;99.90;;;;;;5071792;28;20290;-85
2024/01/28 10:00:34;;;;;;;10.77;3.00;;;4.00;99.90;;;;;;5050400;28;20284;-86
2024/01/28 10:03:01;;;;;;;8.50;3.10;;;4.10;99.90;;;;;;5043656;28;20241;-84
2024/01/28 10:05:29;;;;;;;8.23;3.53;;;4.20;99.90;;;;;;5039924;28;20313;-84
2024/01/28 10:08:02;;;;;;;7.40;3.20;;;4.30;99.90;;;;;;5061552;28;20318;-84
2024/01/28 10:10:29;;;;;;;8.67;3.57;;;4.50;99.90;;;;;;5056575;28;20258;-84
2024/01/28 10:12:57;;;;;;;8.27;3.00;;;4.60;99.90;;;;;;5072644;28;20222;-84
2024/01/28 10:15:27;;;;;;;10.07;3.97;;;4.70;99.90;;;;;;5070214;28;20266;-82
2024/01/28 10:17:54;;;;;;;8.77;4.53;;;4.70;99.90;;;;;;5053819;28;20227;-82
2024/01/28 10:20:23;;;;;;;9.50;3.13;;;4.80;99.90;;;;;;5046024;28;20438;-82
2024/01/28 10:22:51;;;;;;;7.33;4.00;;;4.90;99.90;;;;;;5057232;28;20729;-82
2024/01/28 10:25:21;;;;;;;9.73;3.93;;;5.00;99.90;;;;;;5057632;28;20216;-82
2024/01/28 10:27:49;;;;;;;6.67;3.23;;;5.10;99.90;;;;;;5055012;28;20228;-82
2024/01/28 10:30:18;;;;;;;7.63;2.73;;;5.20;99.90;;;;;;5052525;28;20239;-81
2024/01/28 10:32:45;;;;;;;8.53;3.10;;;5.30;99.90;;;;;;5065586;28;20213;-82
2024/01/28 10:35:13;;;;;;;7.23;2.67;;;5.50;99.90;;;;;;5064228;28;20237;-82
2024/01/28 10:37:41;;;;;;;7.50;2.93;;;5.60;99.90;;;;;;5072514;28;20317;-81
2024/01/28 10:40:09;;;;;;;7.43;2.70;;;5.70;99.90;;;;;;5058689;28;20574;-82
2024/01/28 10:42:39;;;;;;;8.73;3.20;;;5.80;99.90;;;;;;5057298;28;20233;-82
2024/01/28 10:45:09;;;;;;;9.13;2.93;;;5.90;99.90;;;;;;5065861;28;21017;-84
2024/01/28 10:47:38;;;;;;;10.00;3.10;;;6.00;99.90;;;;;;5071275;28;20313;-82
2024/01/28 10:50:07;;;;;;;6.17;2.37;;;6.10;99.90;;;;;;5073221;28;20236;-82
2024/01/28 10:52:35;;;;;;;6.53;2.50;;;6.20;99.90;;;;;;5086864;28;20290;-80
2024/01/28 10:55:03;;;;;;;6.80;3.40;;;6.40;99.90;;;;;;5066027;28;20231;-84
2024/01/28 10:57:32;;;;;;;9.07;2.87;;;6.50;99.90;;;;;;5064788;28;20230;-83
2024/01/28 11:00:01;;;;;;;7.67;2.80;;;6.60;99.90;;;;;;5067438;28;20233;-81
2024/01/28 11:02:28;;;;;;;6.73;2.90;;;6.60;99.90;;;;;;5065566;28;20226;-85
2024/01/28 11:04:55;;;;;;;8.53;3.03;;;6.70;99.90;;;;;;5043917;28;20223;-84
2024/01/28 11:07:24;;;;;;;5.80;2.70;;;6.80;99.90;;;;;;5052987;28;20229;-82
2024/01/28 11:09:52;;;;;;;8.20;2.73;;;6.80;99.90;;;;;;5061786;28;20260;-82
2024/01/28 11:12:19;;;;;;;6.10;2.57;;;7.00;99.90;;;;;;5052648;28;20269;-82
2024/01/28 11:14:47;;;;;;;5.90;2.60;;;7.00;99.90;;;;;;5045970;28;20833;-82
2024/01/28 11:17:16;;;;;;;4.63;2.53;;;7.10;99.90;;;;;;5055345;28;20230;-82
2024/01/28 11:19:43;;;;;;;6.07;2.50;;;7.10;99.90;;;;;;5062877;28;20309;-82
2024/01/28 11:22:15;;;;;;;6.77;2.40;;;7.20;99.90;;;;;;5077845;28;20223;-81
2024/01/28 11:24:50;;;;;;;8.30;2.83;;;7.20;99.90;;;;;;5074212;28;20710;-82
2024/01/28 11:27:16;;;;;;;4.50;2.13;;;7.30;99.90;;;;;;5056882;28;20252;-82
2024/01/28 11:29:45;;;;;;;7.80;2.80;;;7.30;99.90;;;;;;5039452;28;20273;-82
2024/01/28 11:32:13;;;;;;;13.67;3.20;;;7.40;99.90;;;;;;5051084;28;20218;-82
2024/01/28 11:34:43;;;;;;;7.87;2.20;;;7.40;99.90;;;;;;5047686;28;20941;-82
2024/01/28 11:37:15;;;;;;;6.13;2.13;;;7.50;99.90;;;;;;5060767;28;20937;-83
2024/01/28 11:39:46;;;;;;;5.67;2.10;;;7.50;99.90;;;;;;5063754;28;20951;-83
2024/01/28 11:42:13;;;;;;;5.73;2.40;;;7.60;99.90;;;;;;5064279;28;20218;-83
2024/01/28 11:44:42;;;;;;;7.37;2.53;;;7.60;99.90;;;;;;5053871;28;20306;-82
2024/01/28 11:47:12;;;;;;;6.73;2.37;;;7.70;99.90;;;;;;5048913;28;20215;-82
2024/01/28 11:49:43;;;;;;;6.30;2.63;;;7.80;99.90;;;;;;5070196;28;20697;-82
2024/01/28 11:52:11;;;;;;;4.77;2.23;;;7.90;99.90;;;;;;5061304;28;20251;-82
2024/01/28 11:54:38;;;;;;;9.63;2.50;;;7.90;99.90;;;;;;5052803;28;20231;-81
2024/01/28 11:57:06;;;;;;;4.57;2.03;;;8.10;99.90;;;;;;5058497;28;20306;-83
2024/01/28 11:59:34;;;;;;;4.73;2.07;;;8.10;99.90;;;;;;5063038;28;20230;-82
2024/01/28 12:02:01;;;;;;;4.07;1.70;;;8.20;99.90;;;;;;5060940;28;20745;-83
2024/01/28 12:04:28;;;;;;;6.93;2.00;;;8.30;99.90;;;;;;5064487;28;20222;-82
2024/01/28 12:06:56;;;;;;;5.60;1.97;;;8.40;99.90;;;;;;5058395;28;20227;-83
2024/01/28 12:09:23;;;;;;;5.33;1.97;;;8.50;99.90;;;;;;5059871;28;20215;-82
2024/01/28 12:11:51;;;;;;;6.20;2.07;;;8.60;99.90;;;;;;5066067;28;20322;-82
2024/01/28 12:14:18;;;;;;;5.37;2.07;;;8.60;99.90;;;;;;5058495;28;20227;-83
2024/01/28 12:16:45;;;;;;;6.37;2.10;;;8.60;99.90;;;;;;5059998;28;20329;-83
2024/01/28 12:19:13;;;;;;;4.70;1.83;;;8.60;99.90;;;;;;5059901;28;20230;-82
2024/01/28 12:21:40;;;;;;;9.50;4.23;;;8.60;99.90;;;;;;5059837;28;20233;-83
2024/01/28 12:24:10;;;;;;;12.23;4.63;;;8.60;99.90;;;;;;5075097;28;20250;-82
2024/01/28 12:26:37;;;;;;;6.93;2.90;;;8.60;99.90;;;;;;5055975;28;20321;-83
2024/01/28 12:29:04;;;;;;;5.33;2.13;;;8.60;99.90;;;;;;5056555;28;20217;-82
2024/01/28 12:31:31;;;;;;;7.30;2.20;;;8.50;99.90;;;;;;5059586;28;20262;-82
2024/01/28 12:33:58;;;;;;;4.90;1.77;;;8.50;99.90;;;;;;5055466;28;20308;-82
2024/01/28 12:36:25;;;;;;;4.13;2.07;;;8.50;99.90;;;;;;5054584;28;20235;-83
2024/01/28 12:38:51;;;;;;;7.00;2.00;;;8.50;99.90;;;;;;5049771;28;20838;-82
2024/01/28 12:41:20;;;;;;;3.87;1.73;;;8.40;99.90;;;;;;5059150;28;20312;-83